createdAt,value
2022-10-09T00:01:28.343Z,42.87
2022-10-09T00:03:56.089Z,43.08
2022-10-09T00:06:27.487Z,43.04
2022-10-09T00:08:54.371Z,42.93
2022-10-09T00:11:23.412Z,42.99
2022-10-09T00:13:50.429Z,43.15
2022-10-09T00:16:17.743Z,42.86
2022-10-09T00:18:44.834Z,42.76
2022-10-09T00:21:27.788Z,42.96
2022-10-09T00:23:56.751Z,42.87
2022-10-09T00:26:23.598Z,42.76
2022-10-09T00:28:50.521Z,42.82
2022-10-09T00:31:17.619Z,42.90
2022-10-09T00:33:44.581Z,42.89
2022-10-09T00:36:16.392Z,42.94
2022-10-09T00:38:43.656Z,42.84
2022-10-09T00:41:14.075Z,42.75
2022-10-09T00:43:54.448Z,42.76
2022-10-09T00:46:30.362Z,42.80
2022-10-09T00:49:06.245Z,42.93
2022-10-09T00:51:33.079Z,43.00
2022-10-09T00:54:00.275Z,42.99
2022-10-09T00:56:27.142Z,42.93
2022-10-09T00:58:55.203Z,42.87
2022-10-09T01:01:22.145Z,43.06
2022-10-09T01:03:49.165Z,42.85
2022-10-09T01:06:56.159Z,42.89
2022-10-09T01:09:43.515Z,43.04
2022-10-09T01:12:36.464Z,43.08
2022-10-09T01:15:15.175Z,42.94
2022-10-09T01:17:58.190Z,43.24
2022-10-09T01:20:37.137Z,42.98
2022-10-09T01:23:07.994Z,42.95
2022-10-09T01:25:36.571Z,43.20
2022-10-09T01:28:03.456Z,43.20
2022-10-09T01:30:30.308Z,43.04
2022-10-09T01:32:57.511Z,43.08
2022-10-09T01:35:24.313Z,42.82
2022-10-09T01:37:51.138Z,42.81
2022-10-09T01:40:18.040Z,42.92
2022-10-09T01:42:47.247Z,42.91
2022-10-09T01:45:14.972Z,42.80
2022-10-09T01:47:41.889Z,42.89
2022-10-09T01:50:27.898Z,42.82
2022-10-09T01:52:57.539Z,42.77
2022-10-09T01:55:38.620Z,42.69
2022-10-09T01:58:23.350Z,42.58
2022-10-09T02:00:54.647Z,42.78
2022-10-09T02:03:21.479Z,42.45
2022-10-09T02:05:48.529Z,42.46
2022-10-09T02:08:17.441Z,42.66
2022-10-09T02:10:44.601Z,42.42
2022-10-09T02:13:11.506Z,42.63
2022-10-09T02:15:51.806Z,42.64
2022-10-09T02:18:38.591Z,42.43
2022-10-09T02:21:14.229Z,42.65
2022-10-09T02:23:41.331Z,42.43
2022-10-09T02:26:08.966Z,42.40
2022-10-09T02:28:36.031Z,42.35
2022-10-09T02:31:19.590Z,42.53
2022-10-09T02:33:46.561Z,42.45
2022-10-09T02:36:14.356Z,42.55
2022-10-09T02:38:41.247Z,42.51
2022-10-09T02:43:34.724Z,42.46
2022-10-09T02:46:01.690Z,42.47
2022-10-09T02:48:28.547Z,42.17
2022-10-09T02:50:55.358Z,42.89
2022-10-09T02:53:22.211Z,42.94
2022-10-09T02:55:49.039Z,43.09
2022-10-09T02:58:15.902Z,42.17
2022-10-09T03:00:47.661Z,42.28
2022-10-09T03:03:14.749Z,42.23
2022-10-09T03:05:41.564Z,41.79
2022-10-09T03:08:08.453Z,42.03
2022-10-09T03:10:37.584Z,42.11
2022-10-09T03:13:04.841Z,42.28
2022-10-09T03:15:35.444Z,42.22
2022-10-09T03:18:02.273Z,42.11
2022-10-09T03:20:32.402Z,42.13
2022-10-09T03:22:59.256Z,42.11
2022-10-09T03:25:26.114Z,42.03
2022-10-09T03:27:52.925Z,42.11
2022-10-09T03:30:19.872Z,42.06
2022-10-09T03:32:46.946Z,42.22
2022-10-09T03:35:14.026Z,42.41
2022-10-09T03:37:40.876Z,42.39
2022-10-09T03:40:08.095Z,42.45
2022-10-09T03:42:34.930Z,43.25
2022-10-09T03:45:04.605Z,43.51
2022-10-09T03:47:31.877Z,42.78
2022-10-09T03:49:58.678Z,42.95
2022-10-09T03:52:25.692Z,42.67
2022-10-09T03:54:52.502Z,42.85
2022-10-09T03:57:19.359Z,42.63
2022-10-09T03:59:46.271Z,42.78
2022-10-09T04:02:13.173Z,42.56
2022-10-09T04:04:40.040Z,42.56
2022-10-09T04:07:07.162Z,42.44
2022-10-09T04:09:33.982Z,42.45
2022-10-09T04:12:00.809Z,42.45
2022-10-09T04:14:27.657Z,43.23
2022-10-09T04:16:54.490Z,43.07
2022-10-09T04:19:21.314Z,43.23
2022-10-09T04:21:48.161Z,42.69
2022-10-09T04:24:15.108Z,42.98
2022-10-09T04:26:42.058Z,42.92
2022-10-09T04:29:09.033Z,43.02
2022-10-09T04:31:35.921Z,42.94
2022-10-09T04:34:02.766Z,42.95
2022-10-09T04:36:29.624Z,42.86
2022-10-09T04:38:56.464Z,42.88
2022-10-09T04:41:23.297Z,43.79
2022-10-09T04:43:54.448Z,43.86
2022-10-09T04:46:21.253Z,43.06
2022-10-09T04:48:48.217Z,42.92
2022-10-09T04:51:16.064Z,42.80
2022-10-09T04:53:42.910Z,42.91
2022-10-09T04:56:14.110Z,42.86
2022-10-09T04:58:41.262Z,42.96
2022-10-09T05:01:12.901Z,42.98
2022-10-09T05:03:39.875Z,43.02
2022-10-09T05:06:08.163Z,42.86
2022-10-09T05:08:35.247Z,42.76
2022-10-09T05:11:02.971Z,43.06
2022-10-09T05:13:35.027Z,43.04
2022-10-09T05:16:02.851Z,43.05
2022-10-09T05:18:29.851Z,43.13
2022-10-09T05:20:56.895Z,43.24
2022-10-09T05:23:23.736Z,43.05
2022-10-09T05:25:59.691Z,43.24
2022-10-09T05:28:26.604Z,43.20
2022-10-09T05:30:53.551Z,43.20
2022-10-09T05:33:20.383Z,43.23
2022-10-09T05:35:51.613Z,43.13
2022-10-09T05:38:18.642Z,43.32
2022-10-09T05:40:58.778Z,43.20
2022-10-09T05:43:29.476Z,43.22
2022-10-09T05:45:56.366Z,43.34
2022-10-09T05:48:23.252Z,43.42
2022-10-09T05:50:50.234Z,43.41
2022-10-09T05:53:17.042Z,43.28
2022-10-09T05:55:43.923Z,43.51
2022-10-09T05:58:10.793Z,43.67
2022-10-09T06:00:37.604Z,43.72
2022-10-09T06:03:04.460Z,43.52
2022-10-09T06:05:31.285Z,43.66
2022-10-09T06:07:58.108Z,44.01
2022-10-09T06:10:27.988Z,43.83
2022-10-09T06:12:58.362Z,43.73
2022-10-09T06:15:25.199Z,43.84
2022-10-09T06:17:52.008Z,43.53
2022-10-09T06:20:18.850Z,43.51
2022-10-09T06:22:45.713Z,43.46
2022-10-09T06:25:12.572Z,43.58
2022-10-09T06:27:39.373Z,43.44
2022-10-09T06:30:06.746Z,43.68
2022-10-09T06:32:33.578Z,43.59
2022-10-09T06:35:00.401Z,43.76
2022-10-09T06:37:27.443Z,43.59
2022-10-09T06:39:54.309Z,43.42
2022-10-09T06:42:21.631Z,43.47
2022-10-09T06:44:57.062Z,43.62
2022-10-09T06:47:23.868Z,43.78
2022-10-09T06:49:50.670Z,43.52
2022-10-09T06:52:17.633Z,43.48
2022-10-09T06:54:44.440Z,43.59
2022-10-09T06:57:11.245Z,43.26
2022-10-09T06:59:38.146Z,43.58
2022-10-09T07:02:05.035Z,43.23
2022-10-09T07:04:32.039Z,43.20
2022-10-09T07:06:58.872Z,43.09
2022-10-09T07:09:25.688Z,42.99
2022-10-09T07:11:52.529Z,42.80
2022-10-09T07:14:19.474Z,42.84
2022-10-09T07:16:47.147Z,42.61
2022-10-09T07:19:14.483Z,42.72
2022-10-09T07:21:42.804Z,42.55
2022-10-09T07:24:09.779Z,42.53
2022-10-09T07:26:37.914Z,42.57
2022-10-09T07:29:06.014Z,42.74
2022-10-09T07:31:32.848Z,42.77
2022-10-09T07:33:59.719Z,42.78
2022-10-09T07:36:26.688Z,42.66
2022-10-09T07:38:57.423Z,42.78
2022-10-09T07:41:25.785Z,42.51
2022-10-09T07:43:52.778Z,42.57
2022-10-09T07:46:20.877Z,42.51
2022-10-09T07:48:47.869Z,42.41
2022-10-09T07:51:21.544Z,42.50
2022-10-09T07:53:48.691Z,41.88
2022-10-09T07:56:16.626Z,41.94
2022-10-09T07:58:43.699Z,41.94
2022-10-09T08:01:10.616Z,42.39
2022-10-09T08:03:38.059Z,41.79
2022-10-09T08:06:05.376Z,41.91
2022-10-09T08:08:32.236Z,41.71
2022-10-09T08:10:59.095Z,41.57
2022-10-09T08:13:26.025Z,41.61
2022-10-09T08:15:52.897Z,41.60
2022-10-09T08:18:19.792Z,41.81
2022-10-09T08:20:56.732Z,41.61
2022-10-09T08:23:23.654Z,41.72
2022-10-09T08:25:50.475Z,41.65
2022-10-09T08:28:17.397Z,41.51
2022-10-09T08:30:44.343Z,41.44
2022-10-09T08:33:11.180Z,41.59
2022-10-09T08:35:38.038Z,41.18
2022-10-09T08:38:04.843Z,40.93
2022-10-09T08:40:58.096Z,41.00
2022-10-09T08:43:33.872Z,40.80
2022-10-09T08:46:07.816Z,41.04
2022-10-09T08:48:36.067Z,40.60
2022-10-09T08:51:03.001Z,40.78
2022-10-09T08:53:39.550Z,40.80
2022-10-09T08:56:06.744Z,40.67
2022-10-09T08:58:34.606Z,40.77
2022-10-09T09:01:07.092Z,40.40
2022-10-09T09:03:58.614Z,40.43
2022-10-09T09:06:46.399Z,40.60
2022-10-09T09:09:51.558Z,40.59
2022-10-09T09:12:25.129Z,40.73
2022-10-09T09:15:17.750Z,40.92
2022-10-09T09:17:59.996Z,40.62
2022-10-09T09:20:27.559Z,40.73
2022-10-09T09:22:54.430Z,40.70
2022-10-09T09:25:29.120Z,40.53
2022-10-09T09:27:59.181Z,40.42
2022-10-09T09:30:34.530Z,40.39
2022-10-09T09:33:21.207Z,40.33
2022-10-09T09:36:19.174Z,40.46
2022-10-09T09:39:13.500Z,40.23
2022-10-09T09:41:33.096Z,40.39
2022-10-09T09:43:59.944Z,40.15
2022-10-09T09:46:29.187Z,39.85
2022-10-09T09:48:56.233Z,39.74
2022-10-09T09:51:28.847Z,39.59
2022-10-09T09:54:07.104Z,39.61
2022-10-09T09:57:11.124Z,39.76
2022-10-09T09:59:32.616Z,39.42
2022-10-09T10:02:00.986Z,39.30
2022-10-09T10:04:28.419Z,39.19
2022-10-09T10:06:55.346Z,39.20
2022-10-09T10:09:22.176Z,38.96
2022-10-09T10:12:00.112Z,38.74
2022-10-09T10:14:27.109Z,38.75
2022-10-09T10:16:54.953Z,38.50
2022-10-09T10:19:31.654Z,38.82
2022-10-09T10:22:05.703Z,38.42
2022-10-09T10:24:43.207Z,38.42
2022-10-09T10:27:25.935Z,38.22
2022-10-09T10:29:55.594Z,37.91
2022-10-09T10:32:34.711Z,37.98
2022-10-09T10:35:04.871Z,37.67
2022-10-09T10:37:50.518Z,37.60
2022-10-09T10:40:30.653Z,37.69
2022-10-09T10:43:09.489Z,37.49
2022-10-09T10:46:03.350Z,37.10
2022-10-09T10:48:33.725Z,37.09
2022-10-09T10:51:31.723Z,36.75
2022-10-09T10:54:07.614Z,36.74
2022-10-09T10:56:47.874Z,36.63
2022-10-09T10:59:45.353Z,36.44
2022-10-09T11:02:12.775Z,36.29
2022-10-09T11:05:16.966Z,36.16
2022-10-09T11:07:50.318Z,35.98
2022-10-09T11:10:29.227Z,35.67
2022-10-09T11:13:29.391Z,35.49
2022-10-09T11:16:33.346Z,35.45
2022-10-09T11:19:15.182Z,35.11
2022-10-09T11:22:00.673Z,35.18
2022-10-09T11:24:36.753Z,34.92
2022-10-09T11:27:11.438Z,34.75
2022-10-09T11:29:47.858Z,34.73
2022-10-09T11:32:30.124Z,34.32
2022-10-09T11:35:20.838Z,34.43
2022-10-09T11:38:08.076Z,34.22
2022-10-09T11:40:40.587Z,34.07
2022-10-09T11:43:25.564Z,34.21
2022-10-09T11:46:10.395Z,33.81
2022-10-09T11:48:40.257Z,33.87
2022-10-09T11:51:15.451Z,33.73
2022-10-09T11:53:42.343Z,33.68
2022-10-09T11:56:23.111Z,33.50
2022-10-09T11:59:02.148Z,33.42
2022-10-09T12:01:40.586Z,33.31
2022-10-09T12:04:13.635Z,33.22
2022-10-09T12:07:00.223Z,33.04
2022-10-09T12:09:32.370Z,33.06
2022-10-09T12:12:07.494Z,32.85
2022-10-09T12:14:35.979Z,32.66
2022-10-09T12:17:14.087Z,32.95
2022-10-09T12:19:41.002Z,32.52
2022-10-09T12:22:13.186Z,32.17
2022-10-09T12:24:42.098Z,32.28
2022-10-09T12:27:09.018Z,32.58
2022-10-09T12:29:46.295Z,32.45
2022-10-09T12:32:17.243Z,32.47
2022-10-09T12:34:47.278Z,32.09
2022-10-09T12:37:18.842Z,32.02
2022-10-09T12:39:47.181Z,31.79
2022-10-09T12:42:21.750Z,31.99
2022-10-09T12:44:49.253Z,31.69
2022-10-09T12:47:20.589Z,31.99
2022-10-09T12:49:57.556Z,31.90
2022-10-09T12:52:24.392Z,31.74
2022-10-09T12:54:51.210Z,32.03
2022-10-09T12:57:18.096Z,31.84
2022-10-09T12:59:46.035Z,32.00
2022-10-09T13:02:16.297Z,31.53
2022-10-09T13:04:44.282Z,31.46
2022-10-09T13:07:19.768Z,31.23
2022-10-09T13:09:46.672Z,31.00
2022-10-09T13:12:24.410Z,31.00
2022-10-09T13:15:02.122Z,31.15
2022-10-09T13:17:39.711Z,31.01
2022-10-09T13:20:12.403Z,31.08
2022-10-09T13:22:39.681Z,30.83
2022-10-09T13:25:07.111Z,31.01
2022-10-09T13:27:35.426Z,31.11
2022-10-09T13:30:02.370Z,31.06
2022-10-09T13:32:29.363Z,31.40
2022-10-09T13:34:58.044Z,31.21
2022-10-09T13:37:25.857Z,30.94
2022-10-09T13:39:53.916Z,30.63
2022-10-09T13:42:20.852Z,30.37
2022-10-09T13:44:47.672Z,30.62
2022-10-09T13:47:14.572Z,30.51
2022-10-09T13:49:41.539Z,30.34
2022-10-09T13:52:08.649Z,30.36
2022-10-09T13:54:35.517Z,30.36
2022-10-09T13:57:02.667Z,30.50
2022-10-09T13:59:31.733Z,30.27
2022-10-09T14:01:59.259Z,30.14
2022-10-09T14:04:27.619Z,30.31
2022-10-09T14:06:54.504Z,30.55
2022-10-09T14:09:21.600Z,30.51
2022-10-09T14:11:48.676Z,30.04
2022-10-09T14:14:15.573Z,30.30
2022-10-09T14:16:42.525Z,30.31
2022-10-09T14:19:09.586Z,30.27
2022-10-09T14:21:36.416Z,30.10
2022-10-09T14:24:03.387Z,30.03
2022-10-09T14:26:30.547Z,29.70
2022-10-09T14:28:59.181Z,29.79
2022-10-09T14:31:26.683Z,29.61
2022-10-09T14:33:56.049Z,29.93
2022-10-09T14:36:23.092Z,30.74
2022-10-09T14:38:49.977Z,30.92
2022-10-09T14:41:20.126Z,30.93
2022-10-09T14:43:47.486Z,31.24
2022-10-09T14:46:17.077Z,31.71
2022-10-09T14:48:44.977Z,32.07
2022-10-09T14:51:16.707Z,32.82
2022-10-09T14:53:43.584Z,33.28
2022-10-09T14:56:12.138Z,33.63
2022-10-09T14:58:39.146Z,34.16
2022-10-09T15:01:06.404Z,34.35
2022-10-09T15:03:34.695Z,35.32
2022-10-09T15:06:03.456Z,35.30
2022-10-09T15:08:31.091Z,35.78
2022-10-09T15:10:57.967Z,36.18
2022-10-09T15:13:24.992Z,36.69
2022-10-09T15:15:51.880Z,36.92
2022-10-09T15:18:18.704Z,37.38
2022-10-09T15:20:45.942Z,37.43
2022-10-09T15:23:13.133Z,38.00
2022-10-09T15:25:40.063Z,38.04
2022-10-09T15:28:07.024Z,38.34
2022-10-09T15:30:33.865Z,38.29
2022-10-09T15:33:01.979Z,38.62
2022-10-09T15:35:28.818Z,38.39
2022-10-09T15:37:55.939Z,38.45
2022-10-09T15:40:22.879Z,38.32
2022-10-09T15:42:49.990Z,38.50
2022-10-09T15:45:17.091Z,38.78
2022-10-09T15:47:51.468Z,38.75
2022-10-09T15:50:18.461Z,38.90
2022-10-09T15:52:45.575Z,38.89
2022-10-09T15:55:12.466Z,39.12
2022-10-09T15:57:39.269Z,39.22
2022-10-09T16:00:06.826Z,38.89
2022-10-09T16:02:33.631Z,38.93
2022-10-09T16:05:00.581Z,38.91
2022-10-09T16:07:27.460Z,38.75
2022-10-09T16:09:54.275Z,38.82
2022-10-09T16:12:21.131Z,38.76
2022-10-09T16:14:48.085Z,38.68
2022-10-09T16:17:14.872Z,38.84
2022-10-09T16:19:41.693Z,38.49
2022-10-09T16:22:08.585Z,38.60
2022-10-09T16:24:35.397Z,38.37
2022-10-09T16:27:02.240Z,38.09
2022-10-09T16:29:29.975Z,38.40
2022-10-09T16:31:56.889Z,38.11
2022-10-09T16:34:23.796Z,38.16
2022-10-09T16:36:50.737Z,38.16
2022-10-09T16:39:18.023Z,38.28
2022-10-09T16:41:44.941Z,38.07
2022-10-09T16:44:13.215Z,38.17
2022-10-09T16:46:40.097Z,38.01
2022-10-09T16:49:07.031Z,38.07
2022-10-09T16:51:35.238Z,38.15
2022-10-09T16:54:03.204Z,38.07
2022-10-09T16:56:33.098Z,38.19
2022-10-09T16:59:01.005Z,37.94
2022-10-09T17:01:28.230Z,37.83
2022-10-09T17:03:55.909Z,37.74
2022-10-09T17:06:23.879Z,37.74
2022-10-09T17:08:51.934Z,37.68
2022-10-09T17:11:19.005Z,37.79
2022-10-09T17:13:46.068Z,37.80
2022-10-09T17:16:19.993Z,38.07
2022-10-09T17:18:47.871Z,38.76
2022-10-09T17:21:15.059Z,38.57
2022-10-09T17:23:42.099Z,37.87
2022-10-09T17:26:11.755Z,38.08
2022-10-09T17:28:38.948Z,39.09
2022-10-09T17:31:07.371Z,38.83
2022-10-09T17:33:34.626Z,38.51
2022-10-09T17:36:02.082Z,38.79
2022-10-09T17:38:28.895Z,38.21
2022-10-09T17:40:55.738Z,38.10
2022-10-09T17:43:22.665Z,38.47
2022-10-09T17:45:49.744Z,38.13
2022-10-09T17:48:16.585Z,38.33
2022-10-09T17:50:53.139Z,37.99
2022-10-09T17:53:20.325Z,38.00
2022-10-09T17:55:47.159Z,38.67
2022-10-09T17:58:14.005Z,39.01
2022-10-09T18:00:40.988Z,38.74
2022-10-09T18:03:07.874Z,39.00
2022-10-09T18:05:49.248Z,38.91
2022-10-09T18:08:17.499Z,39.17
2022-10-09T18:10:44.474Z,38.89
2022-10-09T18:13:11.520Z,38.80
2022-10-09T18:15:39.182Z,38.74
2022-10-09T18:18:06.153Z,38.49
2022-10-09T18:20:36.905Z,38.31
2022-10-09T18:23:04.569Z,38.13
2022-10-09T18:25:31.406Z,38.15
2022-10-09T18:27:58.363Z,38.10
2022-10-09T18:30:25.538Z,38.27
2022-10-09T18:32:53.832Z,38.08
2022-10-09T18:35:21.048Z,37.95
2022-10-09T18:37:47.881Z,38.15
2022-10-09T18:40:14.780Z,38.23
2022-10-09T18:42:41.656Z,38.08
2022-10-09T18:45:10.072Z,38.25
2022-10-09T18:47:36.997Z,38.19
2022-10-09T18:50:06.019Z,38.17
2022-10-09T18:52:33.198Z,38.23
2022-10-09T18:55:00.177Z,38.77
2022-10-09T18:57:27.231Z,38.20
2022-10-09T18:59:54.386Z,38.48
2022-10-09T19:02:26.106Z,38.20
2022-10-09T19:04:53.975Z,37.95
2022-10-09T19:07:20.804Z,38.00
2022-10-09T19:09:53.541Z,37.95
2022-10-09T19:12:23.370Z,37.85
2022-10-09T19:14:50.213Z,38.32
2022-10-09T19:17:17.027Z,39.01
2022-10-09T19:19:43.897Z,38.32
2022-10-09T19:22:15.234Z,39.22
2022-10-09T19:24:43.814Z,38.53
2022-10-09T19:27:10.635Z,38.65
2022-10-09T19:29:37.464Z,38.69
2022-10-09T19:32:04.324Z,38.64
2022-10-09T19:34:31.712Z,38.67
2022-10-09T19:36:58.799Z,38.64
2022-10-09T19:39:25.831Z,38.44
2022-10-09T19:41:52.704Z,38.31
2022-10-09T19:44:19.645Z,38.49
2022-10-09T19:46:46.826Z,38.62
2022-10-09T19:49:13.708Z,38.52
2022-10-09T19:51:40.530Z,38.44
2022-10-09T19:54:08.483Z,38.47
2022-10-09T19:56:35.678Z,38.43
2022-10-09T19:59:04.023Z,38.46
2022-10-09T20:01:31.069Z,38.38
2022-10-09T20:04:00.874Z,38.63
2022-10-09T20:06:27.757Z,38.66
2022-10-09T20:08:54.695Z,38.60
2022-10-09T20:11:21.750Z,38.77
2022-10-09T20:13:52.096Z,38.75
2022-10-09T20:16:21.916Z,38.80
2022-10-09T20:18:48.753Z,38.91
2022-10-09T20:21:16.252Z,39.03
2022-10-09T20:23:44.397Z,38.87
2022-10-09T20:26:15.678Z,39.06
2022-10-09T20:28:42.728Z,38.84
2022-10-09T20:31:14.906Z,38.65
2022-10-09T20:33:42.084Z,38.81
2022-10-09T20:36:09.015Z,38.96
2022-10-09T20:38:35.985Z,39.08
2022-10-09T20:41:07.480Z,39.22
2022-10-09T20:43:37.221Z,39.38
2022-10-09T20:46:13.329Z,39.42
2022-10-09T20:48:43.329Z,39.41
2022-10-09T20:51:10.154Z,39.28
2022-10-09T20:53:37.056Z,39.62
2022-10-09T20:56:06.127Z,39.36
2022-10-09T20:58:33.159Z,39.33
2022-10-09T21:01:00.062Z,39.40
2022-10-09T21:03:26.930Z,39.27
2022-10-09T21:05:53.790Z,39.28
2022-10-09T21:08:20.678Z,39.41
2022-10-09T21:10:49.042Z,39.31
2022-10-09T21:13:16.334Z,39.50
2022-10-09T21:15:44.248Z,39.41
2022-10-09T21:18:11.473Z,39.29
2022-10-09T21:20:39.475Z,39.39
2022-10-09T21:23:06.424Z,39.48
2022-10-09T21:25:33.823Z,39.44
2022-10-09T21:28:00.664Z,39.51
2022-10-09T21:30:28.107Z,39.52
2022-10-09T21:32:55.401Z,39.56
2022-10-09T21:35:22.695Z,39.41
2022-10-09T21:37:50.065Z,39.44
2022-10-09T21:40:17.982Z,39.50
2022-10-09T21:42:44.822Z,39.63
2022-10-09T21:45:12.972Z,39.48
2022-10-09T21:47:39.819Z,39.66
2022-10-09T21:50:07.057Z,39.57
2022-10-09T21:52:33.886Z,39.61
2022-10-09T21:55:00.753Z,39.80
2022-10-09T21:57:27.605Z,39.78
2022-10-09T21:59:54.415Z,39.92
2022-10-09T22:02:21.318Z,39.75
2022-10-09T22:04:48.320Z,39.79
2022-10-09T22:07:15.187Z,39.85
2022-10-09T22:09:42.136Z,39.98
2022-10-09T22:12:08.959Z,40.06
2022-10-09T22:14:35.914Z,40.09
2022-10-09T22:17:03.392Z,39.99
2022-10-09T22:19:33.038Z,40.11
2022-10-09T22:21:59.854Z,39.71
2022-10-09T22:24:29.216Z,39.72
2022-10-09T22:26:56.956Z,39.88
2022-10-09T22:29:24.792Z,39.83
2022-10-09T22:31:51.623Z,39.86
2022-10-09T22:34:18.618Z,39.85
2022-10-09T22:36:45.777Z,39.71
2022-10-09T22:39:12.769Z,39.66
2022-10-09T22:41:39.652Z,39.77
2022-10-09T22:44:07.765Z,39.80
2022-10-09T22:46:39.413Z,40.04
2022-10-09T22:49:06.893Z,40.08
2022-10-09T22:51:34.011Z,39.98
2022-10-09T22:54:00.997Z,39.92
2022-10-09T22:56:32.772Z,40.00
2022-10-09T22:58:59.690Z,39.74
2022-10-09T23:01:32.554Z,39.75
2022-10-09T23:04:00.114Z,39.96
2022-10-09T23:06:27.141Z,39.90
2022-10-09T23:08:54.125Z,39.95
2022-10-09T23:11:21.075Z,39.74
2022-10-09T23:13:48.048Z,39.99
2022-10-09T23:16:15.154Z,39.97
2022-10-09T23:18:42.408Z,39.96
2022-10-09T23:21:11.223Z,40.16
2022-10-09T23:23:38.233Z,39.93
2022-10-09T23:26:09.206Z,40.28
2022-10-09T23:28:36.279Z,40.35
2022-10-09T23:31:06.841Z,40.50
2022-10-09T23:33:33.716Z,40.47
2022-10-09T23:36:03.992Z,40.59
2022-10-09T23:38:30.913Z,40.38
2022-10-09T23:41:01.533Z,40.28
2022-10-09T23:43:28.792Z,40.32
2022-10-09T23:45:56.488Z,40.30
2022-10-09T23:48:23.314Z,40.37
2022-10-09T23:50:50.909Z,40.23
2022-10-09T23:53:17.933Z,40.45
2022-10-09T23:55:44.985Z,40.25
2022-10-09T23:58:11.914Z,40.53
